sensor_id;sensor_type;location;lat;lon;timestamp;pressure;altitude;pressure_sealevel;temperature;humidity
38912;BME280;28444;48.056;14.408;2023-04-29T00:01:08;97322.66;;;9.85;100.00
38912;BME280;28444;48.056;14.408;2023-04-29T00:03:55;97316.69;;;9.97;100.00
38912;BME280;28444;48.056;14.408;2023-04-29T00:06:42;97319.81;;;9.93;100.00
38912;BME280;28444;48.056;14.408;2023-04-29T00:09:29;97319.81;;;9.93;100.00
38912;BME280;28444;48.056;14.408;2023-04-29T00:12:16;97319.91;;;9.85;100.00
38912;BME280;28444;48.056;14.408;2023-04-29T00:15:04;97307.56;;;9.84;100.00
38912;BME280;28444;48.056;14.408;2023-04-29T00:17:52;97313.56;;;9.83;100.00
38912;BME280;28444;48.056;14.408;2023-04-29T00:20:39;97304.66;;;9.82;100.00
38912;BME280;28444;48.056;14.408;2023-04-29T00:23:27;97300.06;;;9.85;100.00
38912;BME280;28444;48.056;14.408;2023-04-29T00:26:14;97295.06;;;9.91;100.00
38912;BME280;28444;48.056;14.408;2023-04-29T00:29:01;97299.91;;;9.83;100.00
38912;BME280;28444;48.056;14.408;2023-04-29T00:31:48;97298.28;;;9.80;100.00
38912;BME280;28444;48.056;14.408;2023-04-29T00:34:35;97302.63;;;9.83;100.00
38912;BME280;28444;48.056;14.408;2023-04-29T00:37:22;97301.50;;;9.69;100.00
38912;BME280;28444;48.056;14.408;2023-04-29T00:40:10;97297.53;;;9.70;100.00
38912;BME280;28444;48.056;14.408;2023-04-29T00:42:59;97292.78;;;9.70;100.00
38912;BME280;28444;48.056;14.408;2023-04-29T00:45:46;97291.16;;;9.67;100.00
38912;BME280;28444;48.056;14.408;2023-04-29T00:48:33;97288.13;;;9.63;100.00
38912;BME280;28444;48.056;14.408;2023-04-29T00:51:20;97297.03;;;9.63;100.00
38912;BME280;28444;48.056;14.408;2023-04-29T00:54:07;97292.53;;;9.76;100.00
38912;BME280;28444;48.056;14.408;2023-04-29T00:56:55;97292.13;;;9.79;100.00
38912;BME280;28444;48.056;14.408;2023-04-29T00:59:45;97301.59;;;9.78;100.00
38912;BME280;28444;48.056;14.408;2023-04-29T01:02:32;97301.69;;;9.71;100.00
38912;BME280;28444;48.056;14.408;2023-04-29T01:05:19;97292.06;;;9.70;100.00
38912;BME280;28444;48.056;14.408;2023-04-29T01:08:37;97299.84;;;9.73;100.00
38912;BME280;28444;48.056;14.408;2023-04-29T01:11:34;97291.25;;;9.77;100.00
38912;BME280;28444;48.056;14.408;2023-04-29T01:14:22;97279.59;;;9.76;100.00
38912;BME280;28444;48.056;14.408;2023-04-29T01:17:16;97293.31;;;9.69;100.00
38912;BME280;28444;48.056;14.408;2023-04-29T01:20:06;97300.72;;;9.76;100.00
38912;BME280;28444;48.056;14.408;2023-04-29T01:22:54;97292.53;;;9.76;100.00
38912;BME280;28444;48.056;14.408;2023-04-29T01:25:41;97295.41;;;9.78;100.00
38912;BME280;28444;48.056;14.408;2023-04-29T01:29:02;97293.41;;;9.78;100.00
38912;BME280;28444;48.056;14.408;2023-04-29T01:32:08;97295.56;;;9.80;100.00
38912;BME280;28444;48.056;14.408;2023-04-29T01:38:41;97298.88;;;9.78;100.00
38912;BME280;28444;48.056;14.408;2023-04-29T01:44:54;97294.38;;;9.73;100.00
38912;BME280;28444;48.056;14.408;2023-04-29T01:47:43;97293.59;;;9.80;100.00
38912;BME280;28444;48.056;14.408;2023-04-29T01:50:32;97294.31;;;9.81;100.00
38912;BME280;28444;48.056;14.408;2023-04-29T01:53:19;97292.84;;;9.80;100.00
38912;BME280;28444;48.056;14.408;2023-04-29T01:56:06;97294.63;;;9.85;100.00
38912;BME280;28444;48.056;14.408;2023-04-29T01:58:54;97286.97;;;9.83;100.00
38912;BME280;28444;48.056;14.408;2023-04-29T02:01:41;97292.28;;;9.81;100.00
38912;BME280;28444;48.056;14.408;2023-04-29T02:04:28;97294.72;;;9.77;100.00
38912;BME280;28444;48.056;14.408;2023-04-29T02:07:15;97290.69;;;9.78;100.00
38912;BME280;28444;48.056;14.408;2023-04-29T02:10:02;97286.66;;;9.79;100.00
38912;BME280;28444;48.056;14.408;2023-04-29T02:12:50;97287.94;;;9.78;100.00
38912;BME280;28444;48.056;14.408;2023-04-29T02:15:37;97292.28;;;9.64;100.00
38912;BME280;28444;48.056;14.408;2023-04-29T02:18:24;97282.31;;;9.42;100.00
38912;BME280;28444;48.056;14.408;2023-04-29T02:21:11;97277.59;;;9.42;100.00
38912;BME280;28444;48.056;14.408;2023-04-29T02:23:58;97273.16;;;9.47;100.00
38912;BME280;28444;48.056;14.408;2023-04-29T02:26:44;97278.00;;;9.56;100.00
38912;BME280;28444;48.056;14.408;2023-04-29T02:29:31;97271.34;;;9.67;100.00
38912;BME280;28444;48.056;14.408;2023-04-29T02:32:19;97278.31;;;9.77;100.00
38912;BME280;28444;48.056;14.408;2023-04-29T02:35:06;97286.25;;;9.83;100.00
38912;BME280;28444;48.056;14.408;2023-04-29T02:37:54;97291.97;;;9.77;100.00
38912;BME280;28444;48.056;14.408;2023-04-29T02:40:44;97292.19;;;9.72;100.00
38912;BME280;28444;48.056;14.408;2023-04-29T02:43:31;97288.59;;;9.69;100.00
38912;BME280;28444;48.056;14.408;2023-04-29T02:46:18;97298.78;;;9.69;100.00
38912;BME280;28444;48.056;14.408;2023-04-29T02:49:05;97286.50;;;9.77;100.00
38912;BME280;28444;48.056;14.408;2023-04-29T02:51:53;97279.94;;;9.80;100.00
38912;BME280;28444;48.056;14.408;2023-04-29T02:54:40;97279.44;;;9.74;100.00
38912;BME280;28444;48.056;14.408;2023-04-29T02:57:27;97279.75;;;9.78;100.00
38912;BME280;28444;48.056;14.408;2023-04-29T03:00:15;97277.34;;;9.82;100.00
38912;BME280;28444;48.056;14.408;2023-04-29T03:03:02;97277.50;;;9.84;100.00
38912;BME280;28444;48.056;14.408;2023-04-29T03:05:49;97291.72;;;9.83;100.00
38912;BME280;28444;48.056;14.408;2023-04-29T03:08:36;97297.34;;;9.68;100.00
38912;BME280;28444;48.056;14.408;2023-04-29T03:11:23;97295.41;;;9.60;100.00
38912;BME280;28444;48.056;14.408;2023-04-29T03:14:10;97296.53;;;9.57;100.00
38912;BME280;28444;48.056;14.408;2023-04-29T03:16:58;97288.91;;;9.38;100.00
38912;BME280;28444;48.056;14.408;2023-04-29T03:19:45;97282.94;;;9.32;100.00
38912;BME280;28444;48.056;14.408;2023-04-29T03:22:32;97284.69;;;9.20;100.00
38912;BME280;28444;48.056;14.408;2023-04-29T03:25:19;97287.59;;;9.22;100.00
38912;BME280;28444;48.056;14.408;2023-04-29T03:28:06;97290.09;;;9.28;100.00
38912;BME280;28444;48.056;14.408;2023-04-29T03:30:53;97285.34;;;9.28;100.00
38912;BME280;28444;48.056;14.408;2023-04-29T03:33:42;97286.47;;;9.25;100.00
38912;BME280;28444;48.056;14.408;2023-04-29T03:36:29;97290.47;;;9.24;100.00
38912;BME280;28444;48.056;14.408;2023-04-29T03:39:16;97289.59;;;9.22;100.00
38912;BME280;28444;48.056;14.408;2023-04-29T03:42:03;97285.19;;;9.26;100.00
38912;BME280;28444;48.056;14.408;2023-04-29T03:44:50;97295.16;;;9.31;100.00
38912;BME280;28444;48.056;14.408;2023-04-29T03:47:37;97286.78;;;9.29;100.00
38912;BME280;28444;48.056;14.408;2023-04-29T03:50:24;97267.94;;;9.24;100.00
38912;BME280;28444;48.056;14.408;2023-04-29T03:53:12;97271.56;;;9.26;100.00
38912;BME280;28444;48.056;14.408;2023-04-29T03:56:00;97284.81;;;9.30;100.00
38912;BME280;28444;48.056;14.408;2023-04-29T03:58:47;97279.03;;;9.43;100.00
38912;BME280;28444;48.056;14.408;2023-04-29T04:01:34;97281.22;;;9.45;100.00
38912;BME280;28444;48.056;14.408;2023-04-29T04:04:21;97286.34;;;9.58;100.00
38912;BME280;28444;48.056;14.408;2023-04-29T04:07:08;97268.28;;;9.62;100.00
38912;BME280;28444;48.056;14.408;2023-04-29T04:09:55;97259.59;;;9.74;100.00
38912;BME280;28444;48.056;14.408;2023-04-29T04:12:42;97273.72;;;9.80;100.00
38912;BME280;28444;48.056;14.408;2023-04-29T04:15:30;97280.25;;;9.84;100.00
38912;BME280;28444;48.056;14.408;2023-04-29T04:18:17;97276.53;;;9.89;100.00
38912;BME280;28444;48.056;14.408;2023-04-29T04:21:10;97286.16;;;9.91;100.00
38912;BME280;28444;48.056;14.408;2023-04-29T04:23:57;97283.03;;;9.94;100.00
38912;BME280;28444;48.056;14.408;2023-04-29T04:26:44;97285.03;;;9.94;100.00
38912;BME280;28444;48.056;14.408;2023-04-29T04:29:31;97275.16;;;9.98;100.00
38912;BME280;28444;48.056;14.408;2023-04-29T04:32:18;97282.69;;;10.07;100.00
38912;BME280;28444;48.056;14.408;2023-04-29T04:35:06;97278.66;;;10.08;100.00
38912;BME280;28444;48.056;14.408;2023-04-29T04:37:53;97287.13;;;10.03;100.00
38912;BME280;28444;48.056;14.408;2023-04-29T04:40:41;97295.16;;;10.01;100.00
38912;BME280;28444;48.056;14.408;2023-04-29T04:43:28;97301.34;;;10.01;100.00
38912;BME280;28444;48.056;14.408;2023-04-29T04:46:15;97289.19;;;10.12;100.00
38912;BME280;28444;48.056;14.408;2023-04-29T04:49:03;97290.66;;;10.13;100.00
38912;BME280;28444;48.056;14.408;2023-04-29T04:51:50;97283.72;;;10.29;100.00
38912;BME280;28444;48.056;14.408;2023-04-29T04:54:37;97284.09;;;10.43;100.00
38912;BME280;28444;48.056;14.408;2023-04-29T04:57:24;97288.97;;;10.72;100.00
38912;BME280;28444;48.056;14.408;2023-04-29T05:00:12;97284.81;;;10.80;100.00
38912;BME280;28444;48.056;14.408;2023-04-29T05:02:59;97279.13;;;10.96;100.00
38912;BME280;28444;48.056;14.408;2023-04-29T05:05:54;97290.50;;;11.02;100.00
38912;BME280;28444;48.056;14.408;2023-04-29T05:08:42;97284.03;;;11.07;100.00
38912;BME280;28444;48.056;14.408;2023-04-29T05:11:29;97287.41;;;11.25;100.00
38912;BME280;28444;48.056;14.408;2023-04-29T05:14:15;97275.72;;;11.24;100.00
38912;BME280;28444;48.056;14.408;2023-04-29T05:17:03;97289.44;;;11.34;100.00
38912;BME280;28444;48.056;14.408;2023-04-29T05:19:51;97291.16;;;11.39;100.00
38912;BME280;28444;48.056;14.408;2023-04-29T05:22:38;97293.06;;;11.37;100.00
38912;BME280;28444;48.056;14.408;2023-04-29T05:25:25;97293.59;;;11.25;100.00
38912;BME280;28444;48.056;14.408;2023-04-29T05:28:12;97299.66;;;11.24;100.00
38912;BME280;28444;48.056;14.408;2023-04-29T05:30:59;97300.06;;;11.20;100.00
38912;BME280;28444;48.056;14.408;2023-04-29T05:33:46;97297.50;;;11.22;100.00
38912;BME280;28444;48.056;14.408;2023-04-29T05:36:33;97294.34;;;11.36;100.00
38912;BME280;28444;48.056;14.408;2023-04-29T05:39:20;97300.72;;;11.48;100.00
38912;BME280;28444;48.056;14.408;2023-04-29T05:42:07;97309.94;;;11.52;100.00
38912;BME280;28444;48.056;14.408;2023-04-29T05:44:54;97302.59;;;11.55;100.00
38912;BME280;28444;48.056;14.408;2023-04-29T05:47:40;97299.69;;;11.53;100.00
38912;BME280;28444;48.056;14.408;2023-04-29T05:50:27;97311.09;;;11.59;100.00
38912;BME280;28444;48.056;14.408;2023-04-29T05:53:14;97316.56;;;11.59;100.00
38912;BME280;28444;48.056;14.408;2023-04-29T05:56:01;97326.06;;;11.58;100.00
38912;BME280;28444;48.056;14.408;2023-04-29T05:58:52;97315.25;;;11.60;100.00
38912;BME280;28444;48.056;14.408;2023-04-29T06:01:39;97328.38;;;11.62;100.00
38912;BME280;28444;48.056;14.408;2023-04-29T06:04:26;97320.16;;;11.62;100.00
38912;BME280;28444;48.056;14.408;2023-04-29T06:07:13;97323.31;;;11.58;100.00
38912;BME280;28444;48.056;14.408;2023-04-29T06:10:01;97320.28;;;11.54;100.00
38912;BME280;28444;48.056;14.408;2023-04-29T06:12:48;97321.03;;;11.64;100.00
38912;BME280;28444;48.056;14.408;2023-04-29T06:15:37;97325.53;;;11.69;100.00
38912;BME280;28444;48.056;14.408;2023-04-29T06:18:24;97326.44;;;11.91;100.00
38912;BME280;28444;48.056;14.408;2023-04-29T06:21:11;97335.78;;;11.98;100.00
38912;BME280;28444;48.056;14.408;2023-04-29T06:23:58;97338.09;;;12.01;100.00
38912;BME280;28444;48.056;14.408;2023-04-29T06:26:45;97343.72;;;12.03;100.00
38912;BME280;28444;48.056;14.408;2023-04-29T06:29:32;97340.53;;;11.97;100.00
38912;BME280;28444;48.056;14.408;2023-04-29T06:32:19;97338.41;;;12.06;100.00
38912;BME280;28444;48.056;14.408;2023-04-29T06:35:06;97342.25;;;12.12;100.00
38912;BME280;28444;48.056;14.408;2023-04-29T06:37:53;97340.69;;;12.19;100.00
38912;BME280;28444;48.056;14.408;2023-04-29T06:40:42;97346.56;;;12.44;100.00
38912;BME280;28444;48.056;14.408;2023-04-29T06:43:29;97354.59;;;12.71;100.00
38912;BME280;28444;48.056;14.408;2023-04-29T06:46:17;97350.53;;;12.82;100.00
38912;BME280;28444;48.056;14.408;2023-04-29T06:49:04;97353.72;;;12.79;99.80
38912;BME280;28444;48.056;14.408;2023-04-29T06:51:52;97350.69;;;12.74;100.00
38912;BME280;28444;48.056;14.408;2023-04-29T06:54:39;97349.25;;;12.73;100.00
38912;BME280;28444;48.056;14.408;2023-04-29T06:57:26;97357.63;;;12.75;100.00
38912;BME280;28444;48.056;14.408;2023-04-29T07:00:13;97361.06;;;12.76;100.00
38912;BME280;28444;48.056;14.408;2023-04-29T07:03:01;97362.06;;;12.81;100.00
38912;BME280;28444;48.056;14.408;2023-04-29T07:05:48;97356.00;;;12.82;99.86
38912;BME280;28444;48.056;14.408;2023-04-29T07:08:35;97365.25;;;12.87;100.00
38912;BME280;28444;48.056;14.408;2023-04-29T07:11:22;97362.03;;;13.00;99.70
38912;BME280;28444;48.056;14.408;2023-04-29T07:14:10;97364.16;;;13.11;99.17
38912;BME280;28444;48.056;14.408;2023-04-29T07:16:57;97356.88;;;13.26;99.09
38912;BME280;28444;48.056;14.408;2023-04-29T07:19:44;97357.47;;;13.24;99.18
38912;BME280;28444;48.056;14.408;2023-04-29T07:22:32;97360.63;;;13.30;98.82
38912;BME280;28444;48.056;14.408;2023-04-29T07:25:18;97363.31;;;13.40;97.28
38912;BME280;28444;48.056;14.408;2023-04-29T07:28:05;97366.59;;;13.48;97.10
38912;BME280;28444;48.056;14.408;2023-04-29T07:30:54;97360.56;;;13.40;97.32
38912;BME280;28444;48.056;14.408;2023-04-29T07:33:43;97364.16;;;13.11;97.96
38912;BME280;28444;48.056;14.408;2023-04-29T07:36:30;97363.28;;;13.09;99.39
38912;BME280;28444;48.056;14.408;2023-04-29T07:39:18;97369.63;;;13.11;98.56
38912;BME280;28444;48.056;14.408;2023-04-29T07:42:05;97370.81;;;13.08;97.34
38912;BME280;28444;48.056;14.408;2023-04-29T07:44:52;97376.97;;;13.18;99.56
38912;BME280;28444;48.056;14.408;2023-04-29T07:47:40;97377.97;;;13.23;100.00
38912;BME280;28444;48.056;14.408;2023-04-29T07:50:27;97385.16;;;13.38;99.38
38912;BME280;28444;48.056;14.408;2023-04-29T07:53:14;97380.38;;;13.38;97.22
38912;BME280;28444;48.056;14.408;2023-04-29T07:56:05;97386.31;;;13.35;97.36
38912;BME280;28444;48.056;14.408;2023-04-29T07:58:53;97392.22;;;13.41;97.77
38912;BME280;28444;48.056;14.408;2023-04-29T08:01:40;97387.84;;;13.47;98.01
38912;BME280;28444;48.056;14.408;2023-04-29T08:04:27;97396.28;;;13.61;97.98
38912;BME280;28444;48.056;14.408;2023-04-29T08:07:15;97396.56;;;13.87;96.24
38912;BME280;28444;48.056;14.408;2023-04-29T08:10:02;97395.34;;;13.78;97.32
38912;BME280;28444;48.056;14.408;2023-04-29T08:12:49;97407.91;;;13.81;97.10
38912;BME280;28444;48.056;14.408;2023-04-29T08:15:36;97393.25;;;13.88;97.05
38912;BME280;28444;48.056;14.408;2023-04-29T08:18:24;97396.25;;;13.92;95.48
38912;BME280;28444;48.056;14.408;2023-04-29T08:21:11;97398.78;;;14.00;96.36
38912;BME280;28444;48.056;14.408;2023-04-29T08:23:58;97398.53;;;14.17;94.77
38912;BME280;28444;48.056;14.408;2023-04-29T08:26:45;97395.34;;;14.54;94.49
38912;BME280;28444;48.056;14.408;2023-04-29T08:29:32;97388.47;;;14.88;92.75
38912;BME280;28444;48.056;14.408;2023-04-29T08:32:20;97393.78;;;15.20;90.36
38912;BME280;28444;48.056;14.408;2023-04-29T08:35:07;97390.81;;;15.15;88.98
38912;BME280;28444;48.056;14.408;2023-04-29T08:37:54;97397.50;;;15.12;88.34
38912;BME280;28444;48.056;14.408;2023-04-29T08:40:44;97397.91;;;14.74;91.62
38912;BME280;28444;48.056;14.408;2023-04-29T08:43:34;97403.31;;;14.83;92.24
38912;BME280;28444;48.056;14.408;2023-04-29T08:46:24;97405.81;;;14.67;92.47
38912;BME280;28444;48.056;14.408;2023-04-29T08:49:12;97404.63;;;14.71;92.28
38912;BME280;28444;48.056;14.408;2023-04-29T08:51:59;97401.75;;;14.80;92.43
38912;BME280;28444;48.056;14.408;2023-04-29T08:54:46;97399.91;;;15.18;92.29
38912;BME280;28444;48.056;14.408;2023-04-29T08:57:35;97391.16;;;15.45;90.55
38912;BME280;28444;48.056;14.408;2023-04-29T09:00:25;97395.59;;;15.38;87.63
38912;BME280;28444;48.056;14.408;2023-04-29T09:03:43;97400.03;;;15.44;87.35
38912;BME280;28444;48.056;14.408;2023-04-29T09:06:33;97395.94;;;15.21;88.89
38912;BME280;28444;48.056;14.408;2023-04-29T09:09:20;97392.84;;;15.15;91.13
38912;BME280;28444;48.056;14.408;2023-04-29T09:12:07;97396.31;;;15.15;90.91
38912;BME280;28444;48.056;14.408;2023-04-29T09:14:55;97391.50;;;15.28;90.34
38912;BME280;28444;48.056;14.408;2023-04-29T09:17:47;97392.84;;;15.27;88.19
38912;BME280;28444;48.056;14.408;2023-04-29T09:20:34;97393.19;;;15.33;90.06
38912;BME280;28444;48.056;14.408;2023-04-29T09:23:36;97396.06;;;15.35;91.10
38912;BME280;28444;48.056;14.408;2023-04-29T09:26:24;97392.22;;;15.28;89.83
38912;BME280;28444;48.056;14.408;2023-04-29T09:29:12;97384.69;;;15.52;88.59
38912;BME280;28444;48.056;14.408;2023-04-29T09:31:59;97376.88;;;15.60;88.29
38912;BME280;28444;48.056;14.408;2023-04-29T09:34:47;97383.38;;;15.65;87.57
38912;BME280;28444;48.056;14.408;2023-04-29T09:37:34;97378.34;;;15.73;85.28
38912;BME280;28444;48.056;14.408;2023-04-29T09:40:30;97369.91;;;15.83;85.78
38912;BME280;28444;48.056;14.408;2023-04-29T09:43:17;97378.41;;;15.99;87.35
38912;BME280;28444;48.056;14.408;2023-04-29T09:46:04;97376.97;;;15.86;87.73
38912;BME280;28444;48.056;14.408;2023-04-29T09:48:51;97379.50;;;16.19;87.35
38912;BME280;28444;48.056;14.408;2023-04-29T09:51:54;97378.91;;;16.21;85.99
38912;BME280;28444;48.056;14.408;2023-04-29T09:54:42;97377.81;;;16.26;85.91
38912;BME280;28444;48.056;14.408;2023-04-29T09:57:38;97385.00;;;16.31;86.35
38912;BME280;28444;48.056;14.408;2023-04-29T10:00:32;97394.78;;;16.08;85.00
38912;BME280;28444;48.056;14.408;2023-04-29T10:03:20;97392.50;;;16.05;85.49
38912;BME280;28444;48.056;14.408;2023-04-29T10:06:07;97391.72;;;16.28;86.25
38912;BME280;28444;48.056;14.408;2023-04-29T10:08:54;97389.31;;;16.59;86.30
38912;BME280;28444;48.056;14.408;2023-04-29T10:11:43;97385.09;;;16.84;84.74
38912;BME280;28444;48.056;14.408;2023-04-29T10:14:38;97385.16;;;16.47;84.52
38912;BME280;28444;48.056;14.408;2023-04-29T10:17:48;97389.69;;;16.28;85.69
38912;BME280;28444;48.056;14.408;2023-04-29T10:20:38;97382.56;;;16.00;85.90
38912;BME280;28444;48.056;14.408;2023-04-29T10:23:26;97378.41;;;15.99;86.02
38912;BME280;28444;48.056;14.408;2023-04-29T10:26:15;97373.31;;;16.07;86.53
38912;BME280;28444;48.056;14.408;2023-04-29T10:29:06;97374.47;;;16.16;87.21
38912;BME280;28444;48.056;14.408;2023-04-29T10:31:54;97377.06;;;16.00;80.95
38912;BME280;28444;48.056;14.408;2023-04-29T10:34:43;97372.88;;;15.99;82.76
38912;BME280;28444;48.056;14.408;2023-04-29T10:37:30;97372.25;;;16.00;83.36
38912;BME280;28444;48.056;14.408;2023-04-29T10:40:39;97372.00;;;16.08;81.67
38912;BME280;28444;48.056;14.408;2023-04-29T10:43:28;97378.97;;;15.97;82.75
38912;BME280;28444;48.056;14.408;2023-04-29T10:46:16;97377.22;;;16.27;84.35
38912;BME280;28444;48.056;14.408;2023-04-29T10:49:03;97360.31;;;16.21;83.92
38912;BME280;28444;48.056;14.408;2023-04-29T10:52:02;97367.28;;;16.48;80.36
38912;BME280;28444;48.056;14.408;2023-04-29T10:55:02;97371.50;;;16.63;80.82
38912;BME280;28444;48.056;14.408;2023-04-29T10:57:56;97361.47;;;16.55;80.79
38912;BME280;28444;48.056;14.408;2023-04-29T11:00:43;97364.38;;;15.95;82.89
38912;BME280;28444;48.056;14.408;2023-04-29T11:06:51;97355.31;;;16.18;81.92
38912;BME280;28444;48.056;14.408;2023-04-29T11:09:39;97345.47;;;16.40;82.11
38912;BME280;28444;48.056;14.408;2023-04-29T11:12:27;97335.72;;;16.51;81.52
38912;BME280;28444;48.056;14.408;2023-04-29T11:15:16;97343.53;;;16.68;83.48
38912;BME280;28444;48.056;14.408;2023-04-29T11:18:03;97341.34;;;16.53;75.58
38912;BME280;28444;48.056;14.408;2023-04-29T11:21:23;97344.47;;;16.47;76.91
38912;BME280;28444;48.056;14.408;2023-04-29T11:24:10;97344.97;;;16.69;82.19
38912;BME280;28444;48.056;14.408;2023-04-29T11:26:59;97345.16;;;16.73;79.61
38912;BME280;28444;48.056;14.408;2023-04-29T11:29:54;97346.16;;;16.78;78.29
38912;BME280;28444;48.056;14.408;2023-04-29T11:32:44;97335.59;;;16.88;76.08
38912;BME280;28444;48.056;14.408;2023-04-29T11:35:32;97328.00;;;17.14;77.37
38912;BME280;28444;48.056;14.408;2023-04-29T11:38:25;97331.03;;;17.34;73.49
38912;BME280;28444;48.056;14.408;2023-04-29T11:41:13;97324.88;;;17.63;75.85
38912;BME280;28444;48.056;14.408;2023-04-29T11:44:01;97335.66;;;17.43;73.70
38912;BME280;28444;48.056;14.408;2023-04-29T11:46:50;97327.06;;;17.23;69.66
38912;BME280;28444;48.056;14.408;2023-04-29T11:49:37;97331.84;;;17.09;69.04
38912;BME280;28444;48.056;14.408;2023-04-29T11:52:24;97337.78;;;17.17;69.51
38912;BME280;28444;48.056;14.408;2023-04-29T11:55:11;97335.66;;;17.16;70.56
38912;BME280;28444;48.056;14.408;2023-04-29T11:57:58;97334.59;;;16.95;70.50
38912;BME280;28444;48.056;14.408;2023-04-29T12:00:47;97332.88;;;17.02;72.27
38912;BME280;28444;48.056;14.408;2023-04-29T12:03:34;97336.56;;;17.06;72.04
38912;BME280;28444;48.056;14.408;2023-04-29T12:06:26;97335.34;;;17.09;71.73
38912;BME280;28444;48.056;14.408;2023-04-29T12:09:13;97333.50;;;17.00;68.52
38912;BME280;28444;48.056;14.408;2023-04-29T12:12:01;97334.09;;;17.13;67.36
38912;BME280;28444;48.056;14.408;2023-04-29T12:14:50;97338.41;;;17.02;67.92
38912;BME280;28444;48.056;14.408;2023-04-29T12:17:38;97337.38;;;17.09;69.19
38912;BME280;28444;48.056;14.408;2023-04-29T12:20:25;97325.63;;;17.08;68.79
38912;BME280;28444;48.056;14.408;2023-04-29T12:23:21;97325.44;;;17.32;69.18
38912;BME280;28444;48.056;14.408;2023-04-29T12:26:12;97318.13;;;17.39;66.30
38912;BME280;28444;48.056;14.408;2023-04-29T12:29:00;97313.63;;;17.45;65.70
38912;BME280;28444;48.056;14.408;2023-04-29T12:31:48;97311.44;;;17.71;64.60
38912;BME280;28444;48.056;14.408;2023-04-29T12:34:35;97310.50;;;17.94;64.48
38912;BME280;28444;48.056;14.408;2023-04-29T12:37:22;97312.31;;;18.03;62.87
38912;BME280;28444;48.056;14.408;2023-04-29T12:40:13;97299.88;;;17.89;62.18
38912;BME280;28444;48.056;14.408;2023-04-29T12:43:09;97302.84;;;17.79;62.72
38912;BME280;28444;48.056;14.408;2023-04-29T12:46:04;97298.13;;;17.68;66.03
38912;BME280;28444;48.056;14.408;2023-04-29T12:48:53;97303.72;;;17.40;64.21
38912;BME280;28444;48.056;14.408;2023-04-29T12:51:40;97306.59;;;17.28;65.58
38912;BME280;28444;48.056;14.408;2023-04-29T12:54:28;97303.72;;;17.40;65.74
38912;BME280;28444;48.056;14.408;2023-04-29T12:57:16;97297.50;;;17.40;67.01
38912;BME280;28444;48.056;14.408;2023-04-29T13:00:03;97301.16;;;17.44;66.94
38912;BME280;28444;48.056;14.408;2023-04-29T13:02:50;97305.03;;;17.53;65.50
38912;BME280;28444;48.056;14.408;2023-04-29T13:05:38;97303.09;;;17.42;65.07
38912;BME280;28444;48.056;14.408;2023-04-29T13:08:25;97310.06;;;17.43;70.60
38912;BME280;28444;48.056;14.408;2023-04-29T13:11:13;97304.75;;;17.33;74.37
38912;BME280;28444;48.056;14.408;2023-04-29T13:14:00;97304.22;;;17.50;75.33
38912;BME280;28444;48.056;14.408;2023-04-29T13:16:47;97288.13;;;17.61;74.81
38912;BME280;28444;48.056;14.408;2023-04-29T13:19:34;97292.72;;;17.70;74.18
38912;BME280;28444;48.056;14.408;2023-04-29T13:22:38;97296.59;;;17.78;74.71
38912;BME280;28444;48.056;14.408;2023-04-29T13:25:27;97298.63;;;17.92;73.93
38912;BME280;28444;48.056;14.408;2023-04-29T13:28:15;97285.69;;;17.96;73.54
38912;BME280;28444;48.056;14.408;2023-04-29T13:31:02;97287.22;;;17.99;73.90
38912;BME280;28444;48.056;14.408;2023-04-29T13:33:49;97279.94;;;18.06;75.20
38912;BME280;28444;48.056;14.408;2023-04-29T13:36:39;97278.59;;;18.07;72.49
38912;BME280;28444;48.056;14.408;2023-04-29T13:39:26;97273.47;;;18.31;75.33
38912;BME280;28444;48.056;14.408;2023-04-29T13:42:13;97271.59;;;18.36;74.02
38912;BME280;28444;48.056;14.408;2023-04-29T13:45:02;97261.41;;;18.40;74.92
38912;BME280;28444;48.056;14.408;2023-04-29T13:47:49;97268.94;;;18.38;74.67
38912;BME280;28444;48.056;14.408;2023-04-29T13:50:39;97271.53;;;18.49;75.04
38912;BME280;28444;48.056;14.408;2023-04-29T13:53:30;97267.69;;;18.57;74.39
38912;BME280;28444;48.056;14.408;2023-04-29T13:56:19;97262.59;;;18.51;74.73
38912;BME280;28444;48.056;14.408;2023-04-29T13:59:26;97269.13;;;18.89;70.11
38912;BME280;28444;48.056;14.408;2023-04-29T14:02:34;97252.34;;;18.85;68.88
38912;BME280;28444;48.056;14.408;2023-04-29T14:05:21;97258.31;;;18.95;69.64
38912;BME280;28444;48.056;14.408;2023-04-29T14:08:08;97263.97;;;18.82;69.56
38912;BME280;28444;48.056;14.408;2023-04-29T14:10:55;97262.97;;;18.75;66.04
38912;BME280;28444;48.056;14.408;2023-04-29T14:13:43;97273.41;;;18.61;67.92
38912;BME280;28444;48.056;14.408;2023-04-29T14:16:30;97271.06;;;18.39;66.29
38912;BME280;28444;48.056;14.408;2023-04-29T14:19:18;97271.13;;;18.25;68.24
38912;BME280;28444;48.056;14.408;2023-04-29T14:22:05;97283.81;;;18.31;70.89
38912;BME280;28444;48.056;14.408;2023-04-29T14:24:52;97268.19;;;18.21;70.09
38912;BME280;28444;48.056;14.408;2023-04-29T14:27:39;97270.22;;;18.05;70.83
38912;BME280;28444;48.056;14.408;2023-04-29T14:30:26;97277.31;;;17.94;69.92
38912;BME280;28444;48.056;14.408;2023-04-29T14:33:13;97274.44;;;17.92;70.45
38912;BME280;28444;48.056;14.408;2023-04-29T14:36:00;97270.78;;;17.88;70.41
38912;BME280;28444;48.056;14.408;2023-04-29T14:38:47;97274.78;;;17.85;70.33
38912;BME280;28444;48.056;14.408;2023-04-29T14:41:34;97274.06;;;17.70;69.60
38912;BME280;28444;48.056;14.408;2023-04-29T14:44:21;97274.72;;;17.69;70.64
38912;BME280;28444;48.056;14.408;2023-04-29T14:47:08;97296.22;;;17.56;71.27
38912;BME280;28444;48.056;14.408;2023-04-29T14:49:55;97297.50;;;17.40;72.48